sensor_id;sensor_type;location;lat;lon;timestamp;P1;durP1;ratioP1;P2;durP2;ratioP2
73015;SDS011;61893;50.074;14.440;2022-08-01T00:01:25;4.88;;;3.65;;
73015;SDS011;61893;50.074;14.440;2022-08-01T00:03:51;5.38;;;4.00;;
73015;SDS011;61893;50.074;14.440;2022-08-01T00:06:19;6.38;;;3.90;;
73015;SDS011;61893;50.074;14.440;2022-08-01T00:08:45;6.05;;;3.83;;
73015;SDS011;61893;50.074;14.440;2022-08-01T00:11:15;7.30;;;4.00;;
73015;SDS011;61893;50.074;14.440;2022-08-01T00:13:43;5.75;;;3.97;;
73015;SDS011;61893;50.074;14.440;2022-08-01T00:16:09;6.40;;;3.90;;
73015;SDS011;61893;50.074;14.440;2022-08-01T00:18:38;5.53;;;3.95;;
73015;SDS011;61893;50.074;14.440;2022-08-01T00:21:04;5.60;;;4.05;;
73015;SDS011;61893;50.074;14.440;2022-08-01T00:23:41;4.78;;;3.92;;
73015;SDS011;61893;50.074;14.440;2022-08-01T00:26:07;4.35;;;3.92;;
73015;SDS011;61893;50.074;14.440;2022-08-01T00:28:48;5.20;;;4.07;;
73015;SDS011;61893;50.074;14.440;2022-08-01T00:31:14;7.35;;;4.15;;
73015;SDS011;61893;50.074;14.440;2022-08-01T00:33:43;5.55;;;4.60;;
73015;SDS011;61893;50.074;14.440;2022-08-01T00:36:11;5.15;;;4.00;;
73015;SDS011;61893;50.074;14.440;2022-08-01T00:38:39;5.78;;;3.90;;
73015;SDS011;61893;50.074;14.440;2022-08-01T00:41:08;5.43;;;3.95;;
73015;SDS011;61893;50.074;14.440;2022-08-01T00:43:51;5.78;;;4.20;;
73015;SDS011;61893;50.074;14.440;2022-08-01T00:46:17;7.13;;;4.15;;
73015;SDS011;61893;50.074;14.440;2022-08-01T00:48:43;10.25;;;4.45;;
73015;SDS011;61893;50.074;14.440;2022-08-01T00:51:16;6.82;;;4.18;;
73015;SDS011;61893;50.074;14.440;2022-08-01T00:53:42;5.00;;;4.35;;
73015;SDS011;61893;50.074;14.440;2022-08-01T00:56:11;7.05;;;4.43;;
73015;SDS011;61893;50.074;14.440;2022-08-01T00:59:12;8.65;;;4.28;;
73015;SDS011;61893;50.074;14.440;2022-08-01T01:01:41;8.10;;;4.32;;
73015;SDS011;61893;50.074;14.440;2022-08-01T01:04:11;5.85;;;4.35;;
73015;SDS011;61893;50.074;14.440;2022-08-01T01:12:15;9.68;;;4.65;;
73015;SDS011;61893;50.074;14.440;2022-08-01T01:18:04;7.35;;;4.57;;
73015;SDS011;61893;50.074;14.440;2022-08-01T01:20:38;8.77;;;4.68;;
73015;SDS011;61893;50.074;14.440;2022-08-01T01:29:33;6.78;;;4.60;;
73015;SDS011;61893;50.074;14.440;2022-08-01T01:32:17;5.78;;;4.68;;
73015;SDS011;61893;50.074;14.440;2022-08-01T01:34:48;6.60;;;4.53;;
73015;SDS011;61893;50.074;14.440;2022-08-01T01:37:34;5.10;;;4.63;;
73015;SDS011;61893;50.074;14.440;2022-08-01T01:40:15;6.90;;;4.50;;
73015;SDS011;61893;50.074;14.440;2022-08-01T01:42:43;7.65;;;4.70;;
73015;SDS011;61893;50.074;14.440;2022-08-01T01:45:12;5.13;;;4.63;;
73015;SDS011;61893;50.074;14.440;2022-08-01T01:47:45;5.93;;;4.63;;
73015;SDS011;61893;50.074;14.440;2022-08-01T01:50:11;7.70;;;4.65;;
73015;SDS011;61893;50.074;14.440;2022-08-01T01:52:39;8.57;;;4.68;;
73015;SDS011;61893;50.074;14.440;2022-08-01T01:55:07;4.82;;;4.15;;
73015;SDS011;61893;50.074;14.440;2022-08-01T01:57:36;9.27;;;4.65;;
73015;SDS011;61893;50.074;14.440;2022-08-01T02:00:23;5.65;;;4.53;;
73015;SDS011;61893;50.074;14.440;2022-08-01T02:02:55;6.20;;;4.32;;
73015;SDS011;61893;50.074;14.440;2022-08-01T02:05:32;7.75;;;4.95;;
73015;SDS011;61893;50.074;14.440;2022-08-01T02:08:00;4.82;;;4.38;;
73015;SDS011;61893;50.074;14.440;2022-08-01T02:11:00;4.55;;;4.15;;
73015;SDS011;61893;50.074;14.440;2022-08-01T02:13:59;7.82;;;4.78;;
73015;SDS011;61893;50.074;14.440;2022-08-01T02:16:47;6.13;;;4.70;;
73015;SDS011;61893;50.074;14.440;2022-08-01T02:19:14;5.90;;;4.72;;
73015;SDS011;61893;50.074;14.440;2022-08-01T02:22:13;7.90;;;4.20;;
73015;SDS011;61893;50.074;14.440;2022-08-01T02:24:54;5.93;;;4.65;;
73015;SDS011;61893;50.074;14.440;2022-08-01T02:27:33;6.28;;;4.32;;
73015;SDS011;61893;50.074;14.440;2022-08-01T02:30:16;5.57;;;4.60;;
73015;SDS011;61893;50.074;14.440;2022-08-01T02:32:47;5.13;;;4.53;;
73015;SDS011;61893;50.074;14.440;2022-08-01T02:35:32;5.85;;;4.55;;
73015;SDS011;61893;50.074;14.440;2022-08-01T02:38:01;5.32;;;4.20;;
73015;SDS011;61893;50.074;14.440;2022-08-01T02:40:29;7.40;;;4.43;;
73015;SDS011;61893;50.074;14.440;2022-08-01T02:43:05;6.47;;;4.47;;
73015;SDS011;61893;50.074;14.440;2022-08-01T02:45:34;4.80;;;4.30;;
73015;SDS011;61893;50.074;14.440;2022-08-01T02:48:10;5.30;;;4.13;;
73015;SDS011;61893;50.074;14.440;2022-08-01T02:50:39;5.80;;;4.65;;
73015;SDS011;61893;50.074;14.440;2022-08-01T02:53:08;7.35;;;4.43;;
73015;SDS011;61893;50.074;14.440;2022-08-01T02:55:36;5.75;;;4.47;;
73015;SDS011;61893;50.074;14.440;2022-08-01T02:58:20;4.50;;;4.10;;
73015;SDS011;61893;50.074;14.440;2022-08-01T03:00:52;4.90;;;4.25;;
73015;SDS011;61893;50.074;14.440;2022-08-01T03:03:21;6.55;;;4.60;;
73015;SDS011;61893;50.074;14.440;2022-08-01T03:05:48;6.35;;;4.40;;
73015;SDS011;61893;50.074;14.440;2022-08-01T03:08:35;5.95;;;4.40;;
73015;SDS011;61893;50.074;14.440;2022-08-01T03:11:02;5.82;;;4.40;;
73015;SDS011;61893;50.074;14.440;2022-08-01T03:13:36;8.88;;;4.18;;
73015;SDS011;61893;50.074;14.440;2022-08-01T03:16:04;5.40;;;4.30;;
73015;SDS011;61893;50.074;14.440;2022-08-01T03:18:42;7.82;;;4.50;;
73015;SDS011;61893;50.074;14.440;2022-08-01T03:21:52;4.75;;;4.28;;
73015;SDS011;61893;50.074;14.440;2022-08-01T03:24:24;5.53;;;4.18;;
73015;SDS011;61893;50.074;14.440;2022-08-01T03:27:39;4.95;;;4.30;;
73015;SDS011;61893;50.074;14.440;2022-08-01T03:30:17;6.60;;;4.43;;
73015;SDS011;61893;50.074;14.440;2022-08-01T03:32:46;5.20;;;4.70;;
73015;SDS011;61893;50.074;14.440;2022-08-01T03:35:11;5.40;;;4.53;;
73015;SDS011;61893;50.074;14.440;2022-08-01T03:37:44;5.55;;;4.50;;
73015;SDS011;61893;50.074;14.440;2022-08-01T03:40:55;5.55;;;4.53;;
73015;SDS011;61893;50.074;14.440;2022-08-01T03:43:44;8.68;;;4.50;;
73015;SDS011;61893;50.074;14.440;2022-08-01T03:47:08;6.40;;;5.05;;
73015;SDS011;61893;50.074;14.440;2022-08-01T03:50:27;5.75;;;4.85;;
73015;SDS011;61893;50.074;14.440;2022-08-01T03:53:06;5.90;;;4.80;;
73015;SDS011;61893;50.074;14.440;2022-08-01T03:55:35;5.82;;;4.78;;
73015;SDS011;61893;50.074;14.440;2022-08-01T03:58:05;5.35;;;4.47;;
73015;SDS011;61893;50.074;14.440;2022-08-01T04:00:35;8.98;;;5.10;;
73015;SDS011;61893;50.074;14.440;2022-08-01T04:03:09;5.80;;;4.75;;
73015;SDS011;61893;50.074;14.440;2022-08-01T04:05:53;5.82;;;4.82;;
73015;SDS011;61893;50.074;14.440;2022-08-01T04:08:42;5.80;;;4.38;;
73015;SDS011;61893;50.074;14.440;2022-08-01T04:11:24;5.65;;;4.57;;
73015;SDS011;61893;50.074;14.440;2022-08-01T04:14:12;6.07;;;4.38;;
73015;SDS011;61893;50.074;14.440;2022-08-01T04:17:19;5.00;;;4.35;;
73015;SDS011;61893;50.074;14.440;2022-08-01T04:20:12;8.90;;;4.50;;
73015;SDS011;61893;50.074;14.440;2022-08-01T04:22:44;6.25;;;4.70;;
73015;SDS011;61893;50.074;14.440;2022-08-01T04:25:25;5.28;;;4.78;;
73015;SDS011;61893;50.074;14.440;2022-08-01T04:27:53;7.35;;;4.88;;
73015;SDS011;61893;50.074;14.440;2022-08-01T04:30:27;5.25;;;4.75;;
73015;SDS011;61893;50.074;14.440;2022-08-01T04:33:24;7.13;;;5.25;;
73015;SDS011;61893;50.074;14.440;2022-08-01T04:36:04;10.63;;;4.88;;
73015;SDS011;61893;50.074;14.440;2022-08-01T04:38:52;6.25;;;5.07;;
73015;SDS011;61893;50.074;14.440;2022-08-01T04:42:21;6.30;;;5.10;;
73015;SDS011;61893;50.074;14.440;2022-08-01T04:44:53;11.73;;;5.00;;
73015;SDS011;61893;50.074;14.440;2022-08-01T04:47:40;5.88;;;5.05;;
73015;SDS011;61893;50.074;14.440;2022-08-01T04:51:28;8.10;;;5.38;;
73015;SDS011;61893;50.074;14.440;2022-08-01T04:54:11;8.63;;;4.73;;
73015;SDS011;61893;50.074;14.440;2022-08-01T04:56:52;8.07;;;5.00;;
73015;SDS011;61893;50.074;14.440;2022-08-01T04:59:45;7.80;;;5.03;;
73015;SDS011;61893;50.074;14.440;2022-08-01T05:02:46;5.80;;;4.75;;
73015;SDS011;61893;50.074;14.440;2022-08-01T05:05:32;9.48;;;5.18;;
73015;SDS011;61893;50.074;14.440;2022-08-01T05:08:49;9.75;;;4.80;;
73015;SDS011;61893;50.074;14.440;2022-08-01T05:12:12;7.05;;;4.47;;
73015;SDS011;61893;50.074;14.440;2022-08-01T05:14:48;5.38;;;4.88;;
73015;SDS011;61893;50.074;14.440;2022-08-01T05:17:14;6.82;;;4.65;;
73015;SDS011;61893;50.074;14.440;2022-08-01T05:19:40;6.50;;;4.60;;
73015;SDS011;61893;50.074;14.440;2022-08-01T05:22:07;5.93;;;5.10;;
73015;SDS011;61893;50.074;14.440;2022-08-01T05:24:34;5.95;;;5.22;;
73015;SDS011;61893;50.074;14.440;2022-08-01T05:27:11;6.47;;;5.03;;
73015;SDS011;61893;50.074;14.440;2022-08-01T05:29:39;5.60;;;5.03;;
73015;SDS011;61893;50.074;14.440;2022-08-01T05:32:10;5.70;;;5.05;;
73015;SDS011;61893;50.074;14.440;2022-08-01T05:34:36;7.10;;;4.90;;
73015;SDS011;61893;50.074;14.440;2022-08-01T05:37:02;8.43;;;5.18;;
73015;SDS011;61893;50.074;14.440;2022-08-01T05:39:55;6.55;;;4.88;;
73015;SDS011;61893;50.074;14.440;2022-08-01T05:42:22;6.68;;;5.18;;
73015;SDS011;61893;50.074;14.440;2022-08-01T05:44:54;5.60;;;4.97;;
73015;SDS011;61893;50.074;14.440;2022-08-01T05:47:56;5.90;;;5.05;;
73015;SDS011;61893;50.074;14.440;2022-08-01T05:50:28;5.65;;;5.05;;
73015;SDS011;61893;50.074;14.440;2022-08-01T05:52:57;6.47;;;5.07;;
73015;SDS011;61893;50.074;14.440;2022-08-01T05:55:56;5.82;;;5.28;;
73015;SDS011;61893;50.074;14.440;2022-08-01T05:58:27;7.97;;;5.20;;
73015;SDS011;61893;50.074;14.440;2022-08-01T06:00:53;5.90;;;5.30;;
73015;SDS011;61893;50.074;14.440;2022-08-01T06:03:57;6.15;;;4.78;;
73015;SDS011;61893;50.074;14.440;2022-08-01T06:06:28;5.68;;;5.07;;
73015;SDS011;61893;50.074;14.440;2022-08-01T06:08:54;7.03;;;5.38;;
73015;SDS011;61893;50.074;14.440;2022-08-01T06:11:28;7.80;;;5.15;;
73015;SDS011;61893;50.074;14.440;2022-08-01T06:13:57;12.48;;;5.10;;
73015;SDS011;61893;50.074;14.440;2022-08-01T06:16:23;6.75;;;4.95;;
73015;SDS011;61893;50.074;14.440;2022-08-01T06:18:49;7.80;;;5.32;;
73015;SDS011;61893;50.074;14.440;2022-08-01T06:21:20;7.85;;;5.28;;
73015;SDS011;61893;50.074;14.440;2022-08-01T06:23:45;8.20;;;5.00;;
73015;SDS011;61893;50.074;14.440;2022-08-01T06:26:12;10.82;;;5.18;;
73015;SDS011;61893;50.074;14.440;2022-08-01T06:28:42;7.00;;;4.80;;
73015;SDS011;61893;50.074;14.440;2022-08-01T06:31:10;7.85;;;5.35;;
73015;SDS011;61893;50.074;14.440;2022-08-01T06:33:54;8.25;;;5.07;;
73015;SDS011;61893;50.074;14.440;2022-08-01T06:36:58;6.82;;;4.97;;
73015;SDS011;61893;50.074;14.440;2022-08-01T06:41:25;10.65;;;4.90;;
73015;SDS011;61893;50.074;14.440;2022-08-01T06:45:29;9.10;;;4.80;;
73015;SDS011;61893;50.074;14.440;2022-08-01T06:48:32;5.30;;;4.57;;
73015;SDS011;61893;50.074;14.440;2022-08-01T06:51:49;8.30;;;4.35;;
73015;SDS011;61893;50.074;14.440;2022-08-01T06:55:03;6.17;;;4.00;;
73015;SDS011;61893;50.074;14.440;2022-08-01T06:58:53;4.85;;;3.42;;
73015;SDS011;61893;50.074;14.440;2022-08-01T07:02:00;4.97;;;3.92;;
73015;SDS011;61893;50.074;14.440;2022-08-01T07:06:21;8.40;;;3.60;;
73015;SDS011;61893;50.074;14.440;2022-08-01T07:10:20;4.60;;;2.78;;
73015;SDS011;61893;50.074;14.440;2022-08-01T07:13:04;3.80;;;2.45;;
73015;SDS011;61893;50.074;14.440;2022-08-01T07:17:05;3.47;;;2.83;;
73015;SDS011;61893;50.074;14.440;2022-08-01T07:20:23;6.63;;;2.80;;
73015;SDS011;61893;50.074;14.440;2022-08-01T07:23:17;3.53;;;2.80;;
73015;SDS011;61893;50.074;14.440;2022-08-01T07:26:41;2.67;;;2.42;;
73015;SDS011;61893;50.074;14.440;2022-08-01T07:29:47;3.22;;;2.38;;
73015;SDS011;61893;50.074;14.440;2022-08-01T07:33:17;4.43;;;2.50;;
73015;SDS011;61893;50.074;14.440;2022-08-01T07:37:23;4.05;;;2.50;;
73015;SDS011;61893;50.074;14.440;2022-08-01T07:40:55;3.30;;;2.45;;
73015;SDS011;61893;50.074;14.440;2022-08-01T07:44:49;3.53;;;2.20;;
73015;SDS011;61893;50.074;14.440;2022-08-01T07:48:39;2.50;;;2.30;;
73015;SDS011;61893;50.074;14.440;2022-08-01T07:52:24;3.60;;;2.70;;
73015;SDS011;61893;50.074;14.440;2022-08-01T08:05:40;3.67;;;3.15;;
73015;SDS011;61893;50.074;14.440;2022-08-01T08:08:09;3.05;;;2.60;;
73015;SDS011;61893;50.074;14.440;2022-08-01T08:10:36;4.03;;;2.83;;
73015;SDS011;61893;50.074;14.440;2022-08-01T08:13:15;5.65;;;2.97;;
73015;SDS011;61893;50.074;14.440;2022-08-01T08:16:02;4.13;;;2.92;;
73015;SDS011;61893;50.074;14.440;2022-08-01T08:18:29;4.47;;;2.90;;
73015;SDS011;61893;50.074;14.440;2022-08-01T08:20:57;3.80;;;3.15;;
73015;SDS011;61893;50.074;14.440;2022-08-01T08:23:23;4.63;;;3.22;;
73015;SDS011;61893;50.074;14.440;2022-08-01T08:26:21;5.50;;;2.92;;
73015;SDS011;61893;50.074;14.440;2022-08-01T08:28:50;5.53;;;2.72;;
73015;SDS011;61893;50.074;14.440;2022-08-01T08:31:19;7.50;;;3.20;;
73015;SDS011;61893;50.074;14.440;2022-08-01T08:33:45;3.50;;;3.13;;
73015;SDS011;61893;50.074;14.440;2022-08-01T08:36:13;4.68;;;2.83;;
73015;SDS011;61893;50.074;14.440;2022-08-01T08:38:40;2.95;;;2.65;;
73015;SDS011;61893;50.074;14.440;2022-08-01T08:41:07;2.90;;;2.60;;
73015;SDS011;61893;50.074;14.440;2022-08-01T08:43:35;3.58;;;2.88;;
73015;SDS011;61893;50.074;14.440;2022-08-01T08:46:02;4.60;;;2.97;;
73015;SDS011;61893;50.074;14.440;2022-08-01T08:48:33;2.90;;;2.35;;
73015;SDS011;61893;50.074;14.440;2022-08-01T08:51:00;6.03;;;2.40;;
73015;SDS011;61893;50.074;14.440;2022-08-01T08:53:38;3.28;;;2.38;;
73015;SDS011;61893;50.074;14.440;2022-08-01T08:56:10;2.88;;;2.25;;
73015;SDS011;61893;50.074;14.440;2022-08-01T08:58:45;3.25;;;2.30;;
73015;SDS011;61893;50.074;14.440;2022-08-01T09:01:12;3.78;;;2.10;;
73015;SDS011;61893;50.074;14.440;2022-08-01T09:03:39;3.22;;;2.47;;
73015;SDS011;61893;50.074;14.440;2022-08-01T09:06:06;3.35;;;2.25;;
73015;SDS011;61893;50.074;14.440;2022-08-01T09:08:32;2.47;;;2.17;;
73015;SDS011;61893;50.074;14.440;2022-08-01T09:11:04;3.33;;;2.40;;
73015;SDS011;61893;50.074;14.440;2022-08-01T09:13:34;3.67;;;2.38;;
73015;SDS011;61893;50.074;14.440;2022-08-01T09:16:04;4.68;;;2.35;;
73015;SDS011;61893;50.074;14.440;2022-08-01T09:21:08;4.13;;;2.30;;
73015;SDS011;61893;50.074;14.440;2022-08-01T09:23:41;4.38;;;2.10;;
73015;SDS011;61893;50.074;14.440;2022-08-01T09:26:14;3.20;;;2.10;;
73015;SDS011;61893;50.074;14.440;2022-08-01T09:28:44;3.80;;;2.13;;
73015;SDS011;61893;50.074;14.440;2022-08-01T09:31:16;4.15;;;2.30;;
73015;SDS011;61893;50.074;14.440;2022-08-01T09:36:44;2.58;;;2.17;;
73015;SDS011;61893;50.074;14.440;2022-08-01T09:39:25;3.30;;;2.00;;
73015;SDS011;61893;50.074;14.440;2022-08-01T09:41:55;3.45;;;2.03;;
73015;SDS011;61893;50.074;14.440;2022-08-01T09:44:41;2.42;;;1.90;;
73015;SDS011;61893;50.074;14.440;2022-08-01T09:47:10;4.28;;;1.60;;
73015;SDS011;61893;50.074;14.440;2022-08-01T09:49:39;2.17;;;1.50;;
73015;SDS011;61893;50.074;14.440;2022-08-01T09:52:10;3.33;;;1.58;;
73015;SDS011;61893;50.074;14.440;2022-08-01T09:54:42;3.53;;;1.27;;
73015;SDS011;61893;50.074;14.440;2022-08-01T09:57:20;1.63;;;1.27;;
73015;SDS011;61893;50.074;14.440;2022-08-01T09:59:50;3.05;;;1.70;;
73015;SDS011;61893;50.074;14.440;2022-08-01T10:02:37;2.63;;;1.75;;
73015;SDS011;61893;50.074;14.440;2022-08-01T10:05:10;3.38;;;1.73;;
73015;SDS011;61893;50.074;14.440;2022-08-01T10:08:20;2.13;;;1.70;;
73015;SDS011;61893;50.074;14.440;2022-08-01T10:10:31;2.70;;;1.58;;
73015;SDS011;61893;50.074;14.440;2022-08-01T10:13:00;2.67;;;1.83;;
73015;SDS011;61893;50.074;14.440;2022-08-01T10:15:28;3.72;;;1.42;;
73015;SDS011;61893;50.074;14.440;2022-08-01T10:17:59;2.60;;;1.20;;
73015;SDS011;61893;50.074;14.440;2022-08-01T10:20:31;1.67;;;1.23;;
73015;SDS011;61893;50.074;14.440;2022-08-01T10:23:01;1.48;;;1.20;;
73015;SDS011;61893;50.074;14.440;2022-08-01T10:25:35;1.65;;;1.00;;
73015;SDS011;61893;50.074;14.440;2022-08-01T10:28:13;1.00;;;0.90;;
73015;SDS011;61893;50.074;14.440;2022-08-01T10:30:43;1.45;;;0.88;;
73015;SDS011;61893;50.074;14.440;2022-08-01T10:33:20;1.77;;;0.90;;
73015;SDS011;61893;50.074;14.440;2022-08-01T10:35:49;1.52;;;0.85;;
73015;SDS011;61893;50.074;14.440;2022-08-01T10:38:19;0.73;;;0.73;;
73015;SDS011;61893;50.074;14.440;2022-08-01T10:40:46;2.55;;;0.90;;
73015;SDS011;61893;50.074;14.440;2022-08-01T10:43:13;0.82;;;0.82;;
73015;SDS011;61893;50.074;14.440;2022-08-01T10:45:43;2.22;;;0.82;;
73015;SDS011;61893;50.074;14.440;2022-08-01T10:50:45;1.00;;;0.57;;
73015;SDS011;61893;50.074;14.440;2022-08-01T10:53:16;2.42;;;0.70;;
73015;SDS011;61893;50.074;14.440;2022-08-01T10:55:52;1.70;;;1.00;;
73015;SDS011;61893;50.074;14.440;2022-08-01T10:58:28;1.30;;;0.70;;
73015;SDS011;61893;50.074;14.440;2022-08-01T11:01:18;1.90;;;0.70;;
73015;SDS011;61893;50.074;14.440;2022-08-01T11:04:01;0.75;;;0.70;;
73015;SDS011;61893;50.074;14.440;2022-08-01T11:12:19;1.65;;;1.00;;
73015;SDS011;61893;50.074;14.440;2022-08-01T11:17:37;0.70;;;0.70;;
73015;SDS011;61893;50.074;14.440;2022-08-01T11:29:10;0.82;;;0.60;;
73015;SDS011;61893;50.074;14.440;2022-08-01T11:32:48;0.90;;;0.80;;
73015;SDS011;61893;50.074;14.440;2022-08-01T11:40:13;1.92;;;0.75;;
73015;SDS011;61893;50.074;14.440;2022-08-01T11:43:20;1.10;;;0.70;;
73015;SDS011;61893;50.074;14.440;2022-08-01T11:51:01;1.23;;;0.60;;
73015;SDS011;61893;50.074;14.440;2022-08-01T11:54:03;0.98;;;0.60;;
73015;SDS011;61893;50.074;14.440;2022-08-01T11:56:30;1.10;;;0.68;;
73015;SDS011;61893;50.074;14.440;2022-08-01T11:59:04;5.43;;;0.70;;
73015;SDS011;61893;50.074;14.440;2022-08-01T12:01:34;1.55;;;0.90;;
73015;SDS011;61893;50.074;14.440;2022-08-01T12:04:17;1.00;;;0.75;;
73015;SDS011;61893;50.074;14.440;2022-08-01T12:07:51;3.78;;;0.90;;
73015;SDS011;61893;50.074;14.440;2022-08-01T12:10:34;2.05;;;1.00;;
73015;SDS011;61893;50.074;14.440;2022-08-01T12:13:48;5.10;;;1.20;;
73015;SDS011;61893;50.074;14.440;2022-08-01T12:16:24;2.03;;;1.00;;
73015;SDS011;61893;50.074;14.440;2022-08-01T12:19:16;1.30;;;1.15;;
73015;SDS011;61893;50.074;14.440;2022-08-01T12:22:09;6.40;;;1.40;;
73015;SDS011;61893;50.074;14.440;2022-08-01T12:24:42;4.40;;;1.30;;
73015;SDS011;61893;50.074;14.440;2022-08-01T12:32:35;1.85;;;0.93;;
73015;SDS011;61893;50.074;14.440;2022-08-01T12:35:09;2.45;;;1.10;;
73015;SDS011;61893;50.074;14.440;2022-08-01T12:38:02;1.83;;;1.15;;
73015;SDS011;61893;50.074;14.440;2022-08-01T12:40:35;1.85;;;1.10;;
73015;SDS011;61893;50.074;14.440;2022-08-01T12:43:21;3.15;;;0.70;;
73015;SDS011;61893;50.074;14.440;2022-08-01T12:46:08;2.28;;;0.80;;
73015;SDS011;61893;50.074;14.440;2022-08-01T12:48:49;3.80;;;0.82;;
73015;SDS011;61893;50.074;14.440;2022-08-01T12:51:15;2.45;;;0.60;;
73015;SDS011;61893;50.074;14.440;2022-08-01T12:53:45;2.05;;;0.63;;
73015;SDS011;61893;50.074;14.440;2022-08-01T12:56:17;0.88;;;0.60;;
73015;SDS011;61893;50.074;14.440;2022-08-01T12:59:00;0.60;;;0.60;;
73015;SDS011;61893;50.074;14.440;2022-08-01T13:02:07;1.17;;;0.70;;
73015;SDS011;61893;50.074;14.440;2022-08-01T13:05:24;3.55;;;0.90;;
73015;SDS011;61893;50.074;14.440;2022-08-01T13:07:54;2.17;;;0.95;;
73015;SDS011;61893;50.074;14.440;2022-08-01T13:13:40;0.80;;;0.80;;
73015;SDS011;61893;50.074;14.440;2022-08-01T13:16:24;1.15;;;0.80;;
73015;SDS011;61893;50.074;14.440;2022-08-01T13:18:58;0.70;;;0.70;;
73015;SDS011;61893;50.074;14.440;2022-08-01T13:22:49;1.27;;;0.77;;
73015;SDS011;61893;50.074;14.440;2022-08-01T13:25:55;2.10;;;0.85;;
73015;SDS011;61893;50.074;14.440;2022-08-01T13:29:38;1.75;;;0.80;;
73015;SDS011;61893;50.074;14.440;2022-08-01T13:32:13;1.17;;;0.70;;
73015;SDS011;61893;50.074;14.440;2022-08-01T13:35:11;0.82;;;0.70;;
73015;SDS011;61893;50.074;14.440;2022-08-01T13:38:44;1.27;;;0.70;;
73015;SDS011;61893;50.074;14.440;2022-08-01T13:41:49;1.52;;;0.88;;
73015;SDS011;61893;50.074;14.440;2022-08-01T13:44:42;3.38;;;1.10;;
73015;SDS011;61893;50.074;14.440;2022-08-01T13:47:38;0.70;;;0.70;;
73015;SDS011;61893;50.074;14.440;2022-08-01T14:05:33;1.25;;;0.60;;
73015;SDS011;61893;50.074;14.440;2022-08-01T15:01:09;1.95;;;0.47;;
73015;SDS011;61893;50.074;14.440;2022-08-01T15:03:39;0.63;;;0.40;;
73015;SDS011;61893;50.074;14.440;2022-08-01T15:06:13;0.68;;;0.40;;
73015;SDS011;61893;50.074;14.440;2022-08-01T15:08:41;0.75;;;0.52;;
73015;SDS011;61893;50.074;14.440;2022-08-01T15:11:08;0.63;;;0.45;;
73015;SDS011;61893;50.074;14.440;2022-08-01T15:13:35;2.25;;;0.50;;
73015;SDS011;61893;50.074;14.440;2022-08-01T15:16:04;1.85;;;1.00;;
73015;SDS011;61893;50.074;14.440;2022-08-01T15:18:31;1.13;;;0.73;;
73015;SDS011;61893;50.074;14.440;2022-08-01T15:20:57;1.10;;;0.73;;
73015;SDS011;61893;50.074;14.440;2022-08-01T15:23:23;1.50;;;0.63;;
73015;SDS011;61893;50.074;14.440;2022-08-01T15:25:50;2.42;;;0.50;;
73015;SDS011;61893;50.074;14.440;2022-08-01T15:28:21;1.98;;;0.57;;
73015;SDS011;61893;50.074;14.440;2022-08-01T15:30:48;1.23;;;0.60;;
73015;SDS011;61893;50.074;14.440;2022-08-01T15:33:14;0.45;;;0.45;;
73015;SDS011;61893;50.074;14.440;2022-08-01T15:35:46;1.10;;;0.63;;
73015;SDS011;61893;50.074;14.440;2022-08-01T15:38:13;1.42;;;0.80;;
73015;SDS011;61893;50.074;14.440;2022-08-01T15:40:39;3.00;;;0.65;;
73015;SDS011;61893;50.074;14.440;2022-08-01T15:43:05;1.35;;;0.60;;
73015;SDS011;61893;50.074;14.440;2022-08-01T15:45:32;5.63;;;0.70;;
73015;SDS011;61893;50.074;14.440;2022-08-01T15:47:58;1.45;;;0.60;;
73015;SDS011;61893;50.074;14.440;2022-08-01T15:50:31;2.63;;;0.77;;
73015;SDS011;61893;50.074;14.440;2022-08-01T15:52:57;1.20;;;0.50;;
73015;SDS011;61893;50.074;14.440;2022-08-01T15:55:23;2.38;;;0.50;;
73015;SDS011;61893;50.074;14.440;2022-08-01T15:57:50;1.40;;;0.70;;
73015;SDS011;61893;50.074;14.440;2022-08-01T16:00:19;2.17;;;0.50;;
73015;SDS011;61893;50.074;14.440;2022-08-01T16:02:47;1.70;;;0.60;;
73015;SDS011;61893;50.074;14.440;2022-08-01T16:05:16;3.60;;;0.40;;
73015;SDS011;61893;50.074;14.440;2022-08-01T16:07:48;2.03;;;0.65;;
73015;SDS011;61893;50.074;14.440;2022-08-01T16:10:14;0.70;;;0.60;;
73015;SDS011;61893;50.074;14.440;2022-08-01T16:12:45;1.42;;;0.77;;
73015;SDS011;61893;50.074;14.440;2022-08-01T16:15:15;1.80;;;0.70;;
73015;SDS011;61893;50.074;14.440;2022-08-01T16:18:04;3.00;;;0.90;;
73015;SDS011;61893;50.074;14.440;2022-08-01T16:20:33;1.60;;;0.70;;
73015;SDS011;61893;50.074;14.440;2022-08-01T16:23:26;0.85;;;0.60;;
73015;SDS011;61893;50.074;14.440;2022-08-01T16:25:53;2.42;;;0.90;;
73015;SDS011;61893;50.074;14.440;2022-08-01T16:28:25;1.87;;;0.60;;
73015;SDS011;61893;50.074;14.440;2022-08-01T16:30:52;0.90;;;0.60;;
73015;SDS011;61893;50.074;14.440;2022-08-01T16:33:25;2.83;;;0.70;;
73015;SDS011;61893;50.074;14.440;2022-08-01T16:35:52;2.42;;;0.60;;
73015;SDS011;61893;50.074;14.440;2022-08-01T16:38:39;3.35;;;1.05;;
73015;SDS011;61893;50.074;14.440;2022-08-01T16:41:26;2.33;;;1.10;;
73015;SDS011;61893;50.074;14.440;2022-08-01T16:43:55;4.05;;;1.00;;
73015;SDS011;61893;50.074;14.440;2022-08-01T16:46:24;1.40;;;1.30;;
73015;SDS011;61893;50.074;14.440;2022-08-01T16:49:14;2.17;;;1.45;;
73015;SDS011;61893;50.074;14.440;2022-08-01T16:51:41;2.65;;;1.45;;
73015;SDS011;61893;50.074;14.440;2022-08-01T16:54:07;2.00;;;1.45;;
73015;SDS011;61893;50.074;14.440;2022-08-01T16:56:39;1.40;;;1.25;;
73015;SDS011;61893;50.074;14.440;2022-08-01T16:59:11;1.35;;;1.25;;
73015;SDS011;61893;50.074;14.440;2022-08-01T17:01:52;1.40;;;1.30;;
73015;SDS011;61893;50.074;14.440;2022-08-01T17:04:45;1.70;;;1.30;;
73015;SDS011;61893;50.074;14.440;2022-08-01T17:07:24;5.38;;;1.58;;
73015;SDS011;61893;50.074;14.440;2022-08-01T17:09:50;2.67;;;1.48;;
73015;SDS011;61893;50.074;14.440;2022-08-01T17:12:20;4.55;;;1.63;;
73015;SDS011;61893;50.074;14.440;2022-08-01T17:14:49;3.50;;;1.90;;
73015;SDS011;61893;50.074;14.440;2022-08-01T17:17:25;2.47;;;1.70;;
73015;SDS011;61893;50.074;14.440;2022-08-01T17:19:53;3.83;;;1.88;;
73015;SDS011;61893;50.074;14.440;2022-08-01T17:22:19;2.97;;;1.65;;
73015;SDS011;61893;50.074;14.440;2022-08-01T17:24:48;2.88;;;1.58;;
73015;SDS011;61893;50.074;14.440;2022-08-01T17:27:18;2.95;;;1.40;;
73015;SDS011;61893;50.074;14.440;2022-08-01T17:29:48;5.95;;;1.20;;
73015;SDS011;61893;50.074;14.440;2022-08-01T17:32:18;1.20;;;1.02;;
73015;SDS011;61893;50.074;14.440;2022-08-01T17:34:49;2.03;;;1.40;;
73015;SDS011;61893;50.074;14.440;2022-08-01T17:37:16;1.35;;;1.05;;
73015;SDS011;61893;50.074;14.440;2022-08-01T17:39:46;1.77;;;1.10;;
73015;SDS011;61893;50.074;14.440;2022-08-01T17:42:15;2.00;;;1.08;;
73015;SDS011;61893;50.074;14.440;2022-08-01T17:44:41;2.67;;;1.17;;
73015;SDS011;61893;50.074;14.440;2022-08-01T17:47:11;1.75;;;1.10;;
73015;SDS011;61893;50.074;14.440;2022-08-01T17:49:43;2.47;;;1.30;;
73015;SDS011;61893;50.074;14.440;2022-08-01T17:52:13;3.03;;;1.27;;
73015;SDS011;61893;50.074;14.440;2022-08-01T17:54:42;1.20;;;1.10;;
73015;SDS011;61893;50.074;14.440;2022-08-01T17:57:11;2.45;;;1.15;;
73015;SDS011;61893;50.074;14.440;2022-08-01T17:59:49;2.33;;;1.20;;
73015;SDS011;61893;50.074;14.440;2022-08-01T18:02:16;1.50;;;1.10;;
73015;SDS011;61893;50.074;14.440;2022-08-01T18:05:03;3.58;;;1.63;;
73015;SDS011;61893;50.074;14.440;2022-08-01T18:08:00;1.30;;;1.00;;
73015;SDS011;61893;50.074;14.440;2022-08-01T18:10:53;1.40;;;1.00;;